Shelby, Texas
Current Conditions -  °F | °C
As of 2:15 AM on Monday 24 Nov 2014 (Local Time) from K3T5 Reporting Station
Clear Clear  
Wind Chill: 56°   Ceiling: Unl
Heat Index: 56°   Visibility: 10mi
Dew Point: 42°   Wind: 12mph
Humidity: 59%   Direction: 350°N
Pressure: 29.86"   Gusts: 23mph
Location:  29.8816°N, 96.6536°W
Report Text: K3T5 240815Z AUTO 35010G20KT 10SM CLR 13/05 A2986 RMK AO2 T01330054
Loading
Personal Weather Stations






























Interactive Weather Map New forecast layout! Learn more

10-Day Weather Forecast

Advertisements
Track Severe Weather on mobile